Time;durP1;ratioP1;P1;durP2;ratioP2;P2;SDS_P1;SDS_P2;PMS_P1;PMS_P2;Temp;Humidity;BMP_temperature;BMP_pressure;BME280_temperature;BME280_humidity;BME280_pressure;Samples;Min_cycle;Max_cycle;Signal;HPM_P1;HPM_P2
2021/08/17 00:00:55;;;;;;;18.10;4.43;;;;;;;;;;4423531;32;20135;-85
2021/08/17 00:03:24;;;;;;;22.67;4.20;;;;;;;;;;4423555;32;20398;-86
2021/08/17 00:05:52;;;;;;;22.45;4.62;;;;;;;;;;4431558;32;20614;-85
2021/08/17 00:08:21;;;;;;;16.40;4.25;;;;;;;;;;4429291;32;20046;-85
2021/08/17 00:10:50;;;;;;;17.67;4.40;;;;;;;;;;4436954;32;20080;-86
2021/08/17 00:13:20;;;;;;;16.85;3.80;;;;;;;;;;4431447;32;20462;-87
2021/08/17 00:15:48;;;;;;;19.40;4.25;;;;;;;;;;4428971;32;20144;-85
2021/08/17 00:18:17;;;;;;;15.32;3.33;;;;;;;;;;4426946;32;20050;-86
2021/08/17 00:20:46;;;;;;;20.95;4.40;;;;;;;;;;4426357;32;20054;-85
2021/08/17 00:23:15;;;;;;;18.70;4.15;;;;;;;;;;4431618;32;20050;-86
2021/08/17 00:25:44;;;;;;;19.80;4.37;;;;;;;;;;4428448;32;20088;-86
2021/08/17 00:28:13;;;;;;;20.88;5.07;;;;;;;;;;4429624;32;20495;-85
2021/08/17 00:30:41;;;;;;;23.02;4.97;;;;;;;;;;4420401;32;20098;-87
2021/08/17 00:33:10;;;;;;;23.98;4.57;;;;;;;;;;4421015;32;20630;-84
2021/08/17 00:35:38;;;;;;;23.48;5.32;;;;;;;;;;4425049;32;20101;-86
2021/08/17 00:38:07;;;;;;;20.85;5.65;;;;;;;;;;4421887;32;20504;-85
2021/08/17 00:40:36;;;;;;;22.55;5.20;;;;;;;;;;4425351;32;20050;-86
2021/08/17 00:43:08;;;;;;;19.48;5.35;;;;;;;;;;4419676;32;20097;-85
2021/08/17 00:45:37;;;;;;;23.65;5.43;;;;;;;;;;4431477;32;20147;-87
2021/08/17 00:48:05;;;;;;;16.35;3.58;;;;;;;;;;4425654;32;20105;-87
2021/08/17 00:50:34;;;;;;;26.98;3.42;;;;;;;;;;4426885;32;20089;-87
2021/08/17 00:53:04;;;;;;;10.10;2.03;;;;;;;;;;4428530;32;20140;-87
2021/08/17 00:55:35;;;;;;;30.65;4.20;;;;;;;;;;4428692;32;20452;-85
2021/08/17 00:58:03;;;;;;;13.85;2.28;;;;;;;;;;4427200;32;20161;-85
2021/08/17 01:00:32;;;;;;;101.03;6.62;;;;;;;;;;4429343;32;20177;-87
2021/08/17 01:03:00;;;;;;;15.65;2.25;;;;;;;;;;4424238;32;20668;-85
2021/08/17 01:05:30;;;;;;;36.72;4.47;;;;;;;;;;4428568;32;20046;-85
2021/08/17 01:07:59;;;;;;;16.77;2.95;;;;;;;;;;4432281;32;20054;-86
2021/08/17 01:10:29;;;;;;;12.73;2.35;;;;;;;;;;4428723;32;20038;-87
2021/08/17 01:12:58;;;;;;;16.30;3.03;;;;;;;;;;4432476;32;20345;-86
2021/08/17 01:15:26;;;;;;;14.50;2.25;;;;;;;;;;4426539;32;20076;-86
2021/08/17 01:17:55;;;;;;;13.07;2.05;;;;;;;;;;4431045;32;20537;-85
2021/08/17 01:20:25;;;;;;;12.07;2.20;;;;;;;;;;4422259;32;20148;-86
2021/08/17 01:22:54;;;;;;;11.82;2.10;;;;;;;;;;4422737;32;20033;-86
2021/08/17 01:25:24;;;;;;;11.40;2.58;;;;;;;;;;4426457;32;20102;-86
2021/08/17 01:27:52;;;;;;;9.88;2.47;;;;;;;;;;4429233;32;20105;-86
2021/08/17 01:30:22;;;;;;;82.03;6.55;;;;;;;;;;4425655;32;20086;-86
2021/08/17 01:32:50;;;;;;;21.75;2.95;;;;;;;;;;4428553;32;21643;-86
2021/08/17 01:35:19;;;;;;;6.57;2.00;;;;;;;;;;4426228;32;20945;-87
2021/08/17 01:37:47;;;;;;;7.43;2.12;;;;;;;;;;4427562;32;20107;-86
2021/08/17 01:40:16;;;;;;;8.10;2.12;;;;;;;;;;4423621;32;20100;-86
2021/08/17 01:42:51;;;;;;;15.90;3.05;;;;;;;;;;4426746;32;20105;-87
2021/08/17 01:45:21;;;;;;;10.15;2.67;;;;;;;;;;4425926;32;20117;-86
2021/08/17 01:47:53;;;;;;;9.18;2.87;;;;;;;;;;4431853;32;20414;-86
2021/08/17 01:50:24;;;;;;;9.23;2.85;;;;;;;;;;4430235;32;21339;-86
2021/08/17 01:52:53;;;;;;;13.85;3.35;;;;;;;;;;4432672;32;20692;-86
2021/08/17 01:55:22;;;;;;;14.38;3.80;;;;;;;;;;4430276;32;20057;-86
2021/08/17 01:57:50;;;;;;;18.00;4.00;;;;;;;;;;4424914;32;20101;-86
2021/08/17 02:00:20;;;;;;;15.88;4.25;;;;;;;;;;4433445;32;22212;-86
2021/08/17 02:02:48;;;;;;;19.25;3.70;;;;;;;;;;4429937;32;20053;-86
2021/08/17 02:05:20;;;;;;;21.62;4.40;;;;;;;;;;4430446;32;20046;-86
2021/08/17 02:07:51;;;;;;;19.20;4.28;;;;;;;;;;4431901;32;20440;-86
2021/08/17 02:10:21;;;;;;;19.58;4.57;;;;;;;;;;4432060;32;20135;-86
2021/08/17 02:12:49;;;;;;;19.48;4.53;;;;;;;;;;4431999;32;20218;-86
2021/08/17 02:15:18;;;;;;;18.75;4.70;;;;;;;;;;4430123;32;20170;-86
2021/08/17 02:17:46;;;;;;;20.40;3.92;;;;;;;;;;4433857;32;20075;-86
2021/08/17 02:20:15;;;;;;;18.80;4.70;;;;;;;;;;4431602;32;20045;-85
2021/08/17 02:22:44;;;;;;;23.33;4.10;;;;;;;;;;4434117;32;20562;-86
2021/08/17 02:25:13;;;;;;;21.70;4.03;;;;;;;;;;4428671;32;20053;-86
2021/08/17 02:27:42;;;;;;;15.25;3.92;;;;;;;;;;4433813;32;20076;-86
2021/08/17 02:30:10;;;;;;;22.65;4.85;;;;;;;;;;4430053;32;20084;-86
2021/08/17 02:32:39;;;;;;;25.60;4.68;;;;;;;;;;4422075;32;20552;-86
2021/08/17 02:35:07;;;;;;;17.25;4.03;;;;;;;;;;4427690;32;20113;-86
2021/08/17 02:37:36;;;;;;;21.77;3.53;;;;;;;;;;4425105;32;20117;-87
2021/08/17 02:40:05;;;;;;;15.88;3.58;;;;;;;;;;4426248;32;20222;-86
2021/08/17 02:42:34;;;;;;;14.27;3.95;;;;;;;;;;4423255;32;20449;-86
2021/08/17 02:45:02;;;;;;;16.90;3.65;;;;;;;;;;4418610;32;20125;-85
2021/08/17 02:47:31;;;;;;;14.05;3.70;;;;;;;;;;4422785;32;20092;-86
2021/08/17 02:49:59;;;;;;;17.87;3.72;;;;;;;;;;4423442;32;20101;-84
2021/08/17 02:52:28;;;;;;;16.50;4.20;;;;;;;;;;4424201;32;20105;-86
2021/08/17 02:54:56;;;;;;;18.20;3.70;;;;;;;;;;4420798;32;20065;-86
2021/08/17 02:57:25;;;;;;;18.80;3.65;;;;;;;;;;4421253;32;20228;-86
2021/08/17 02:59:53;;;;;;;16.95;3.70;;;;;;;;;;4421057;32;20124;-86
2021/08/17 03:02:21;;;;;;;23.40;3.78;;;;;;;;;;4425416;32;20136;-86
2021/08/17 03:04:50;;;;;;;14.13;3.55;;;;;;;;;;4417817;32;20102;-86
2021/08/17 03:07:19;;;;;;;15.65;3.35;;;;;;;;;;4418762;32;20046;-85
2021/08/17 03:09:47;;;;;;;9.52;2.62;;;;;;;;;;4425785;32;20348;-86
2021/08/17 07:31:41;;;;;;;19.58;5.55;;;;;;;;;;4776287;28;20294;-89
2021/08/17 07:34:23;;;;;;;16.65;5.05;;;;;;;;;;4134508;34;20103;-88
2021/08/17 07:37:10;;;;;;;22.55;6.00;;;;;;;;;;4149725;34;20040;-88
2021/08/17 07:39:39;;;;;;;18.95;4.90;;;;;;;;;;4136303;34;20067;-88
2021/08/17 07:42:07;;;;;;;16.75;5.25;;;;;;;;;;4148064;34;20074;-87
2021/08/17 07:44:36;;;;;;;19.77;5.50;;;;;;;;;;4162034;34;20103;-86
2021/08/17 07:47:05;;;;;;;20.73;5.45;;;;;;;;;;4152336;34;20158;-89
2021/08/17 07:49:36;;;;;;;18.40;5.12;;;;;;;;;;4144856;34;20303;-86
2021/08/17 07:52:06;;;;;;;17.58;5.80;;;;;;;;;;4147273;34;20516;-89
2021/08/17 07:54:37;;;;;;;16.83;5.05;;;;;;;;;;4159724;34;20059;-87
2021/08/17 07:57:11;;;;;;;18.95;5.00;;;;;;;;;;4151176;34;20151;-89
2021/08/17 07:59:47;;;;;;;18.23;5.45;;;;;;;;;;4148163;34;20485;-89
2021/08/17 08:02:18;;;;;;;15.82;5.28;;;;;;;;;;4162037;34;20084;-90
2021/08/17 08:04:51;;;;;;;20.67;5.57;;;;;;;;;;4145508;34;20449;-86
2021/08/17 08:07:19;;;;;;;16.87;5.87;;;;;;;;;;4141832;34;20169;-91
2021/08/17 08:09:48;;;;;;;17.73;5.07;;;;;;;;;;4131111;34;20083;-88
2021/08/17 08:12:17;;;;;;;20.10;5.28;;;;;;;;;;4155748;34;20137;-89
2021/08/17 08:14:46;;;;;;;17.12;5.35;;;;;;;;;;4157068;34;20053;-88
2021/08/17 08:17:15;;;;;;;19.20;5.53;;;;;;;;;;4146071;34;20388;-90
2021/08/17 08:19:46;;;;;;;15.60;4.45;;;;;;;;;;4156586;34;20438;-91
2021/08/17 08:22:29;;;;;;;13.18;4.53;;;;;;;;;;4143639;34;20108;-86
2021/08/17 08:25:19;;;;;;;16.10;4.50;;;;;;;;;;4160903;34;20148;-88
2021/08/17 08:27:58;;;;;;;16.87;5.35;;;;;;;;;;4156693;34;20116;-88
2021/08/17 08:30:28;;;;;;;17.37;4.90;;;;;;;;;;4162070;34;20056;-90
2021/08/17 08:33:10;;;;;;;19.27;5.82;;;;;;;;;;4131395;34;20534;-89
2021/08/17 08:35:40;;;;;;;17.37;5.50;;;;;;;;;;4148240;34;20538;-88
2021/08/17 08:38:09;;;;;;;13.57;5.30;;;;;;;;;;4134801;34;20107;-89
2021/08/17 08:40:48;;;;;;;15.30;5.05;;;;;;;;;;4133489;34;20119;-87
2021/08/17 08:43:19;;;;;;;17.20;4.60;;;;;;;;;;4159100;34;20046;-87
2021/08/17 08:45:48;;;;;;;20.75;5.45;;;;;;;;;;4151260;34;20107;-88
2021/08/17 08:48:19;;;;;;;16.58;5.28;;;;;;;;;;4155769;34;20064;-85
2021/08/17 09:29:36;;;;;;;;;;;;;;;;;;;;;
2021/08/17 09:32:58;;;;;;;18.27;4.87;;;;;;;;;;4102915;34;20057;-91
2021/08/17 11:05:10;;;;;;;;;;;;;;;;;;5247843;27;20036;-85
2021/08/17 11:07:39;;;;;;;15.32;4.65;;;;;;;;;;5250844;27;19965;-86
2021/08/17 11:10:10;;;;;;;21.95;4.97;;;;;;;;;;5243366;27;20183;-85
2021/08/17 11:12:39;;;;;;;19.95;4.40;;;;;;;;;;5250915;27;20022;-85
2021/08/17 11:15:09;;;;;;;19.30;5.55;;;;;;;;;;5251065;27;20161;-86
2021/08/17 11:17:38;;;;;;;16.60;4.82;;;;;;;;;;5252319;27;20092;-86
2021/08/17 11:20:07;;;;;;;14.85;4.87;;;;;;;;;;5241190;27;20399;-85
2021/08/17 11:22:37;;;;;;;15.25;4.70;;;;;;;;;;5250890;27;20014;-86
2021/08/17 11:25:06;;;;;;;16.73;4.78;;;;;;;;;;5250715;27;20026;-84
2021/08/17 11:27:39;;;;;;;16.73;4.60;;;;;;;;;;5252561;27;20036;-85
2021/08/17 11:30:11;;;;;;;14.40;4.50;;;;;;;;;;5253393;27;20408;-85
2021/08/17 11:32:48;;;;;;;17.60;4.35;;;;;;;;;;5251923;27;20341;-85
2021/08/17 11:35:22;;;;;;;11.02;3.87;;;;;;;;;;5251259;27;20040;-84
2021/08/17 11:37:52;;;;;;;17.58;5.05;;;;;;;;;;5251994;27;20065;-85
2021/08/17 11:40:25;;;;;;;20.60;5.03;;;;;;;;;;5248418;27;20045;-84
2021/08/17 11:42:56;;;;;;;20.30;5.07;;;;;;;;;;5247729;27;20478;-85
2021/08/17 11:45:27;;;;;;;14.25;4.00;;;;;;;;;;5251412;27;20038;-85
2021/08/17 11:47:59;;;;;;;14.43;4.32;;;;;;;;;;5229396;27;20055;-85
2021/08/17 11:50:27;;;;;;;25.10;5.15;;;;;;;;;;5250562;27;20020;-84
2021/08/17 11:52:59;;;;;;;20.62;4.53;;;;;;;;;;5248081;27;20056;-86
2021/08/17 11:55:33;;;;;;;14.75;4.20;;;;;;;;;;5250455;27;20028;-85
2021/08/17 11:58:05;;;;;;;22.08;4.68;;;;;;;;;;5250909;27;20048;-85
2021/08/17 12:00:35;;;;;;;16.62;3.37;;;;;;;;;;5252255;27;20051;-85
2021/08/17 12:03:06;;;;;;;16.23;4.05;;;;;;;;;;5251078;27;20052;-85
2021/08/17 12:05:37;;;;;;;17.37;5.05;;;;;;;;;;5247994;27;20006;-85
2021/08/17 12:08:13;;;;;;;22.75;4.43;;;;;;;;;;5250261;27;20060;-86
2021/08/17 12:10:43;;;;;;;11.80;3.62;;;;;;;;;;5251547;27;20033;-85
2021/08/17 12:13:18;;;;;;;13.60;4.72;;;;;;;;;;5248775;27;20069;-86
2021/08/17 12:15:48;;;;;;;18.23;4.53;;;;;;;;;;5251217;27;20017;-85
2021/08/17 12:18:16;;;;;;;13.05;4.43;;;;;;;;;;5247705;27;20025;-85
2021/08/17 12:20:52;;;;;;;17.87;4.78;;;;;;;;;;5251191;27;20099;-85
2021/08/17 12:23:29;;;;;;;15.38;3.80;;;;;;;;;;5246541;27;20069;-86
2021/08/17 12:26:10;;;;;;;14.10;4.47;;;;;;;;;;5228031;27;20060;-86
2021/08/17 12:28:40;;;;;;;16.58;4.30;;;;;;;;;;5248019;27;20051;-86
2021/08/17 12:31:13;;;;;;;18.90;4.32;;;;;;;;;;5247247;27;20104;-85
2021/08/17 12:33:42;;;;;;;15.73;4.60;;;;;;;;;;5243365;27;20037;-85
2021/08/17 12:36:10;;;;;;;13.48;4.18;;;;;;;;;;5246586;27;20489;-86
2021/08/17 12:38:39;;;;;;;32.97;6.15;;;;;;;;;;5248818;27;20096;-85
2021/08/17 12:41:08;;;;;;;17.08;5.22;;;;;;;;;;5249297;27;20030;-85
2021/08/17 12:43:43;;;;;;;16.35;4.37;;;;;;;;;;5249484;27;20049;-85
2021/08/17 12:46:15;;;;;;;17.77;4.78;;;;;;;;;;5252191;27;20077;-85
2021/08/17 12:48:45;;;;;;;16.45;4.57;;;;;;;;;;5250537;27;20068;-85
2021/08/17 12:51:20;;;;;;;17.92;4.68;;;;;;;;;;5251884;27;20114;-86
2021/08/17 12:53:50;;;;;;;16.87;4.35;;;;;;;;;;5252798;27;20286;-85
2021/08/17 12:56:19;;;;;;;19.75;4.65;;;;;;;;;;5249418;27;20029;-85
2021/08/17 12:58:48;;;;;;;16.00;4.07;;;;;;;;;;5251958;27;20059;-85
2021/08/17 13:01:17;;;;;;;17.75;4.72;;;;;;;;;;5251845;27;20051;-85
2021/08/17 13:03:47;;;;;;;14.77;4.12;;;;;;;;;;5251761;27;20044;-85
2021/08/17 13:06:15;;;;;;;16.60;4.40;;;;;;;;;;5251771;27;20045;-85
2021/08/17 13:08:47;;;;;;;15.55;4.15;;;;;;;;;;5231836;27;20366;-85
2021/08/17 13:11:15;;;;;;;16.25;4.45;;;;;;;;;;5250071;27;20426;-86
2021/08/17 13:13:43;;;;;;;16.02;4.03;;;;;;;;;;5248394;27;20549;-85
2021/08/17 13:16:12;;;;;;;17.02;4.65;;;;;;;;;;5251648;27;20425;-85
2021/08/17 13:18:41;;;;;;;14.80;4.43;;;;;;;;;;5231323;27;20344;-85
2021/08/17 13:21:09;;;;;;;17.37;4.60;;;;;;;;;;5251886;27;20065;-84
2021/08/17 13:23:42;;;;;;;17.98;4.22;;;;;;;;;;5248931;27;20050;-84
2021/08/17 13:26:11;;;;;;;17.05;5.10;;;;;;;;;;5232891;27;20048;-85
2021/08/17 13:28:39;;;;;;;16.15;4.30;;;;;;;;;;5250929;27;20064;-85
2021/08/17 13:31:17;;;;;;;15.43;4.57;;;;;;;;;;5249307;27;20049;-85
2021/08/17 13:33:45;;;;;;;14.18;4.50;;;;;;;;;;5248018;27;20515;-84
2021/08/17 13:36:13;;;;;;;16.87;4.53;;;;;;;;;;5251513;27;20447;-85
2021/08/17 13:38:42;;;;;;;18.08;4.47;;;;;;;;;;5250955;27;20033;-85
2021/08/17 13:41:11;;;;;;;17.48;4.60;;;;;;;;;;5230403;27;20456;-85
2021/08/17 13:43:39;;;;;;;16.90;5.25;;;;;;;;;;5250170;27;20392;-85
2021/08/17 13:46:08;;;;;;;17.92;4.70;;;;;;;;;;5227937;27;20037;-86
2021/08/17 13:48:37;;;;;;;14.52;4.57;;;;;;;;;;5247521;27;20032;-85
2021/08/17 13:51:05;;;;;;;15.70;4.87;;;;;;;;;;5250284;27;20056;-86
2021/08/17 13:53:35;;;;;;;21.02;5.10;;;;;;;;;;5250405;27;20431;-84
2021/08/17 13:56:04;;;;;;;22.62;5.40;;;;;;;;;;5231263;27;20177;-85
2021/08/17 13:58:32;;;;;;;16.00;4.80;;;;;;;;;;5249677;27;20046;-84
2021/08/17 14:01:03;;;;;;;16.52;4.50;;;;;;;;;;5249719;27;20057;-84
2021/08/17 14:03:32;;;;;;;18.70;4.62;;;;;;;;;;5250297;27;20060;-84
2021/08/17 14:06:01;;;;;;;14.75;4.30;;;;;;;;;;5248857;27;20095;-85
2021/08/17 14:08:29;;;;;;;19.20;5.15;;;;;;;;;;5249566;27;20033;-85
2021/08/17 14:10:58;;;;;;;19.98;4.70;;;;;;;;;;5249468;27;20328;-85
2021/08/17 14:13:26;;;;;;;19.50;4.28;;;;;;;;;;5251252;27;20086;-84
2021/08/17 14:16:00;;;;;;;19.92;4.87;;;;;;;;;;5251756;27;20018;-84
2021/08/17 14:18:30;;;;;;;19.87;4.70;;;;;;;;;;5250559;27;20397;-84
2021/08/17 14:21:00;;;;;;;18.98;5.18;;;;;;;;;;5231803;27;20033;-85
2021/08/17 14:23:30;;;;;;;19.10;5.00;;;;;;;;;;5248137;27;20029;-85
2021/08/17 14:26:03;;;;;;;19.70;4.97;;;;;;;;;;5251557;27;20367;-84
2021/08/17 14:28:32;;;;;;;15.40;5.07;;;;;;;;;;5249253;27;20357;-84
2021/08/17 14:31:00;;;;;;;23.58;5.85;;;;;;;;;;5252400;27;20033;-85
2021/08/17 14:33:28;;;;;;;17.02;4.62;;;;;;;;;;5252234;27;20062;-84
2021/08/17 14:35:58;;;;;;;15.60;4.55;;;;;;;;;;5252952;27;20050;-85
2021/08/17 14:38:27;;;;;;;19.42;5.37;;;;;;;;;;5251472;27;20041;-85
2021/08/17 14:40:56;;;;;;;15.77;4.50;;;;;;;;;;5253118;27;20035;-84
2021/08/17 14:43:24;;;;;;;15.07;4.30;;;;;;;;;;5231368;27;20163;-85
2021/08/17 14:45:53;;;;;;;19.85;5.37;;;;;;;;;;5252210;27;20014;-85
2021/08/17 14:48:21;;;;;;;23.67;5.18;;;;;;;;;;5231994;27;20428;-84
2021/08/17 14:50:50;;;;;;;20.58;5.55;;;;;;;;;;5250158;27;20045;-84
2021/08/17 14:53:19;;;;;;;21.08;5.45;;;;;;;;;;5228102;27;20037;-87
2021/08/17 14:55:47;;;;;;;29.02;6.25;;;;;;;;;;5250525;27;20375;-87
2021/08/17 14:58:16;;;;;;;27.48;5.32;;;;;;;;;;5249573;27;20389;-85
2021/08/17 15:00:45;;;;;;;24.98;5.18;;;;;;;;;;5249656;27;20473;-88
2021/08/17 15:03:15;;;;;;;23.00;5.40;;;;;;;;;;5248423;27;20026;-87
2021/08/17 15:05:44;;;;;;;23.08;5.90;;;;;;;;;;5250416;27;20073;-87
2021/08/17 15:08:12;;;;;;;22.58;5.70;;;;;;;;;;5251668;27;20129;-84
2021/08/17 15:10:41;;;;;;;22.08;4.75;;;;;;;;;;5251570;27;20073;-85
2021/08/17 15:13:10;;;;;;;27.83;5.68;;;;;;;;;;5251686;27;20037;-85
2021/08/17 15:15:44;;;;;;;19.27;5.50;;;;;;;;;;5252626;27;20302;-84
2021/08/17 15:18:13;;;;;;;23.25;5.68;;;;;;;;;;5231555;27;20034;-84
2021/08/17 15:20:43;;;;;;;29.85;6.55;;;;;;;;;;5251625;27;20032;-84
2021/08/17 15:23:11;;;;;;;22.95;5.62;;;;;;;;;;5251955;27;20026;-85
2021/08/17 15:25:40;;;;;;;29.92;6.68;;;;;;;;;;5251464;27;20040;-85
2021/08/17 15:28:19;;;;;;;22.40;5.78;;;;;;;;;;5251933;27;20060;-84
2021/08/17 15:30:48;;;;;;;29.83;7.03;;;;;;;;;;5252340;27;20411;-84
2021/08/17 15:33:17;;;;;;;23.87;5.72;;;;;;;;;;5253358;27;20078;-85
2021/08/17 15:35:46;;;;;;;26.20;5.97;;;;;;;;;;5251802;27;20884;-85
2021/08/17 15:38:15;;;;;;;27.15;6.55;;;;;;;;;;5251420;27;20096;-85
2021/08/17 15:40:43;;;;;;;22.87;5.28;;;;;;;;;;5228964;27;20049;-86
2021/08/17 15:43:11;;;;;;;28.00;6.32;;;;;;;;;;5247088;27;20318;-85
2021/08/17 15:45:40;;;;;;;26.45;5.90;;;;;;;;;;5247194;27;20069;-88
2021/08/17 15:48:09;;;;;;;22.58;5.40;;;;;;;;;;5245731;27;20562;-89
2021/08/17 15:50:37;;;;;;;25.05;5.78;;;;;;;;;;5228320;27;20022;-88
2021/08/17 15:53:06;;;;;;;26.65;5.18;;;;;;;;;;5226640;27;20153;-86
2021/08/17 15:55:34;;;;;;;20.75;5.18;;;;;;;;;;5248570;27;20046;-87
2021/08/17 15:58:02;;;;;;;27.00;5.80;;;;;;;;;;5247701;27;20018;-86
2021/08/17 16:00:31;;;;;;;27.65;5.62;;;;;;;;;;5230905;27;20046;-85
2021/08/17 16:03:00;;;;;;;21.90;5.65;;;;;;;;;;5226514;27;20023;-86
2021/08/17 16:05:28;;;;;;;24.83;5.50;;;;;;;;;;5247506;27;20021;-86
2021/08/17 16:07:57;;;;;;;25.33;5.65;;;;;;;;;;5243688;27;20039;-86
2021/08/17 16:10:30;;;;;;;25.55;5.60;;;;;;;;;;5228485;27;20034;-87
2021/08/17 16:12:58;;;;;;;25.70;5.53;;;;;;;;;;5227681;27;20071;-86
2021/08/17 16:15:28;;;;;;;23.00;5.47;;;;;;;;;;5248276;27;20526;-86
2021/08/17 16:17:56;;;;;;;19.17;4.43;;;;;;;;;;5246668;27;20041;-87
2021/08/17 16:20:27;;;;;;;23.87;4.72;;;;;;;;;;5246231;27;20446;-86
2021/08/17 16:22:56;;;;;;;26.08;5.40;;;;;;;;;;5246537;27;20381;-86
2021/08/17 16:25:24;;;;;;;19.62;4.45;;;;;;;;;;5247467;27;20084;-86
2021/08/17 16:27:53;;;;;;;23.08;5.10;;;;;;;;;;5248462;27;20026;-87
2021/08/17 16:30:24;;;;;;;24.15;5.35;;;;;;;;;;5230421;27;20056;-86
2021/08/17 16:32:54;;;;;;;25.50;5.57;;;;;;;;;;5247554;27;20062;-85
2021/08/17 16:35:22;;;;;;;25.27;5.00;;;;;;;;;;5246132;27;20129;-86
2021/08/17 16:37:52;;;;;;;17.30;5.15;;;;;;;;;;5242943;27;20522;-85
2021/08/17 16:40:21;;;;;;;27.33;5.75;;;;;;;;;;5244170;27;20076;-86
2021/08/17 16:42:50;;;;;;;23.15;5.53;;;;;;;;;;5243317;27;20067;-86
2021/08/17 16:45:18;;;;;;;21.90;5.30;;;;;;;;;;5219318;27;20308;-86
2021/08/17 16:47:47;;;;;;;19.73;4.75;;;;;;;;;;5237412;27;20060;-86
2021/08/17 16:50:17;;;;;;;21.45;4.50;;;;;;;;;;5241458;27;20025;-86
2021/08/17 16:52:46;;;;;;;23.08;4.35;;;;;;;;;;5239023;27;20398;-86
2021/08/17 16:55:15;;;;;;;26.67;4.82;;;;;;;;;;5244003;27;20771;-86
2021/08/17 16:57:43;;;;;;;24.15;5.00;;;;;;;;;;5223833;27;20076;-85
2021/08/17 17:00:13;;;;;;;27.35;6.15;;;;;;;;;;5222400;27;20053;-86
2021/08/17 17:02:42;;;;;;;23.70;4.57;;;;;;;;;;5241878;27;20028;-87
2021/08/17 17:05:11;;;;;;;24.37;5.05;;;;;;;;;;5243360;27;20464;-86
2021/08/17 17:07:40;;;;;;;22.73;4.85;;;;;;;;;;5226208;27;20530;-87
2021/08/17 17:10:10;;;;;;;26.27;5.30;;;;;;;;;;5225029;27;20053;-86
2021/08/17 17:12:38;;;;;;;20.25;4.43;;;;;;;;;;5245651;27;20057;-85
2021/08/17 17:15:08;;;;;;;24.12;4.60;;;;;;;;;;5226988;27;20058;-85
2021/08/17 17:17:37;;;;;;;23.90;5.22;;;;;;;;;;5246627;27;20022;-84
2021/08/17 17:20:11;;;;;;;21.95;4.82;;;;;;;;;;5244055;27;20062;-85
2021/08/17 17:22:39;;;;;;;23.52;4.70;;;;;;;;;;5225058;27;20037;-86
2021/08/17 17:25:08;;;;;;;19.98;4.85;;;;;;;;;;5243401;27;20056;-85
2021/08/17 17:27:40;;;;;;;23.12;5.18;;;;;;;;;;5242042;27;20054;-86
2021/08/17 17:30:09;;;;;;;22.90;4.72;;;;;;;;;;5224744;27;20026;-85
2021/08/17 17:32:38;;;;;;;28.60;5.85;;;;;;;;;;5245044;27;20066;-87
2021/08/17 17:35:06;;;;;;;25.40;5.00;;;;;;;;;;5225429;27;20437;-86
2021/08/17 17:37:35;;;;;;;22.65;5.25;;;;;;;;;;5224211;27;20869;-89
2021/08/17 17:40:05;;;;;;;22.77;5.45;;;;;;;;;;5245174;27;20034;-87
2021/08/17 17:42:33;;;;;;;22.75;5.43;;;;;;;;;;5245558;27;20060;-87
2021/08/17 17:45:02;;;;;;;34.72;5.97;;;;;;;;;;5246899;27;20394;-87
2021/08/17 17:47:30;;;;;;;32.92;5.85;;;;;;;;;;5222631;27;20042;-87
2021/08/17 17:49:59;;;;;;;30.35;5.65;;;;;;;;;;5245370;27;20042;-87
2021/08/17 17:52:29;;;;;;;24.67;5.62;;;;;;;;;;5208892;27;20052;-86
2021/08/17 17:54:59;;;;;;;31.12;6.35;;;;;;;;;;5246523;27;20029;-88
2021/08/17 17:57:27;;;;;;;28.12;5.30;;;;;;;;;;5209967;27;20408;-87
2021/08/17 17:59:56;;;;;;;32.25;5.68;;;;;;;;;;5244695;27;20053;-88
2021/08/17 18:02:25;;;;;;;33.22;6.50;;;;;;;;;;5245956;27;20573;-88
2021/08/17 18:05:16;;;;;;;24.80;4.30;;;;;;;;;;5204792;27;20531;-87
2021/08/17 18:07:44;;;;;;;26.23;5.87;;;;;;;;;;5225596;27;20121;-87
2021/08/17 18:10:13;;;;;;;36.10;7.05;;;;;;;;;;5206219;27;20025;-86
2021/08/17 18:12:42;;;;;;;24.63;5.00;;;;;;;;;;5224603;27;20045;-87
2021/08/17 18:15:11;;;;;;;27.05;5.00;;;;;;;;;;5199522;27;20062;-87
2021/08/17 18:17:39;;;;;;;32.72;5.62;;;;;;;;;;5224760;27;20026;-86
2021/08/17 18:20:08;;;;;;;26.65;5.18;;;;;;;;;;5226445;27;20088;-87
2021/08/17 18:22:37;;;;;;;26.10;4.53;;;;;;;;;;5223432;27;20062;-87
2021/08/17 18:25:17;;;;;;;23.92;4.65;;;;;;;;;;5225301;27;20056;-86
2021/08/17 18:27:46;;;;;;;22.73;4.85;;;;;;;;;;5206181;27;20429;-87
2021/08/17 18:30:18;;;;;;;20.75;4.15;;;;;;;;;;5226274;27;20026;-86
2021/08/17 18:32:59;;;;;;;21.20;4.30;;;;;;;;;;5225467;27;20114;-86
2021/08/17 18:35:33;;;;;;;19.02;4.50;;;;;;;;;;5224441;27;20367;-85
2021/08/17 18:38:02;;;;;;;24.40;4.20;;;;;;;;;;5225322;27;20095;-87
2021/08/17 18:40:32;;;;;;;20.90;4.65;;;;;;;;;;5205170;27;20348;-86
2021/08/17 18:43:01;;;;;;;25.98;5.32;;;;;;;;;;5226675;27;20564;-86
2021/08/17 18:45:29;;;;;;;24.30;5.43;;;;;;;;;;5224178;27;20019;-87
2021/08/17 18:48:18;;;;;;;20.02;4.35;;;;;;;;;;5205844;27;20406;-87
2021/08/17 18:50:47;;;;;;;21.23;4.40;;;;;;;;;;5205389;27;20026;-86
2021/08/17 18:53:15;;;;;;;27.05;5.60;;;;;;;;;;5225691;27;20076;-88
2021/08/17 18:55:44;;;;;;;24.30;4.45;;;;;;;;;;5224215;27;20045;-87
2021/08/17 18:58:13;;;;;;;20.12;4.20;;;;;;;;;;5224794;27;20122;-85
2021/08/17 19:00:44;;;;;;;23.98;5.50;;;;;;;;;;5225491;27;20045;-85
2021/08/17 19:03:28;;;;;;;25.05;7.00;;;;;;;;;;5232326;27;20025;-85
2021/08/17 19:05:56;;;;;;;30.60;18.75;;;;;;;;;;5244924;27;20023;-86
2021/08/17 19:08:25;;;;;;;47.62;42.72;;;;;;;;;;5247998;27;20121;-86
2021/08/17 19:10:54;;;;;;;106.50;99.13;;;;;;;;;;5244208;27;20149;-85
2021/08/17 19:13:22;;;;;;;137.62;129.20;;;;;;;;;;5244832;27;20789;-85
2021/08/17 19:15:51;;;;;;;116.45;107.85;;;;;;;;;;5243195;27;20405;-86
2021/08/17 19:18:19;;;;;;;223.75;209.23;;;;;;;;;;5242980;27;20022;-85
2021/08/17 19:20:48;;;;;;;236.32;221.52;;;;;;;;;;5246317;27;20033;-85
2021/08/17 19:23:18;;;;;;;171.32;159.63;;;;;;;;;;5225876;27;20036;-85
2021/08/17 19:25:47;;;;;;;115.78;106.12;;;;;;;;;;5246754;27;20049;-86
2021/08/17 19:28:16;;;;;;;207.85;196.48;;;;;;;;;;5247209;27;20060;-86
2021/08/17 19:30:45;;;;;;;164.62;154.15;;;;;;;;;;5222878;27;20060;-85
2021/08/17 19:33:14;;;;;;;296.02;278.15;;;;;;;;;;5240853;27;20090;-86
2021/08/17 19:35:42;;;;;;;379.75;355.95;;;;;;;;;;5241891;27;20018;-86
2021/08/17 19:38:10;;;;;;;370.05;344.13;;;;;;;;;;5242949;27;20576;-86
2021/08/17 19:40:39;;;;;;;357.48;326.75;;;;;;;;;;5243822;27;20446;-85
2021/08/17 19:43:07;;;;;;;314.73;287.27;;;;;;;;;;5245198;27;20068;-86
2021/08/17 19:45:37;;;;;;;308.33;279.55;;;;;;;;;;5244717;27;20075;-85
2021/08/17 19:48:14;;;;;;;329.02;302.27;;;;;;;;;;5242696;27;20065;-85
2021/08/17 19:50:43;;;;;;;316.80;290.35;;;;;;;;;;5224179;27;20610;-85
2021/08/17 19:53:11;;;;;;;322.70;294.33;;;;;;;;;;5246074;27;20025;-85
2021/08/17 19:55:40;;;;;;;321.10;292.87;;;;;;;;;;5246319;27;20068;-85
2021/08/17 19:58:09;;;;;;;287.60;259.87;;;;;;;;;;5228473;27;20037;-85
2021/08/17 20:00:39;;;;;;;262.12;234.65;;;;;;;;;;5244268;27;20048;-86
2021/08/17 20:03:08;;;;;;;270.17;243.77;;;;;;;;;;5247098;27;20446;-85
2021/08/17 20:05:37;;;;;;;257.25;230.57;;;;;;;;;;5227863;27;20371;-85
2021/08/17 20:08:06;;;;;;;256.13;230.80;;;;;;;;;;5241124;27;20064;-85
2021/08/17 20:10:36;;;;;;;236.52;214.12;;;;;;;;;;5241955;27;20030;-85
2021/08/17 20:13:06;;;;;;;211.18;192.93;;;;;;;;;;5246195;27;20041;-85
2021/08/17 20:15:34;;;;;;;172.73;157.95;;;;;;;;;;5228120;27;20059;-85
2021/08/17 20:18:03;;;;;;;165.70;150.35;;;;;;;;;;5247759;27;20050;-85
2021/08/17 20:20:31;;;;;;;165.93;151.20;;;;;;;;;;5245816;27;20034;-86
2021/08/17 20:23:00;;;;;;;170.87;156.15;;;;;;;;;;5247525;27;20401;-86
2021/08/17 20:25:29;;;;;;;245.73;225.38;;;;;;;;;;5225746;27;20416;-86
2021/08/17 20:27:57;;;;;;;248.57;228.05;;;;;;;;;;5228251;27;20070;-86
2021/08/17 20:30:25;;;;;;;260.38;239.57;;;;;;;;;;5228106;27;20057;-85
2021/08/17 20:32:54;;;;;;;266.05;245.37;;;;;;;;;;5242943;27;20056;-86
2021/08/17 20:35:23;;;;;;;270.35;248.90;;;;;;;;;;5246783;27;20050;-86
2021/08/17 20:37:52;;;;;;;235.32;214.82;;;;;;;;;;5246128;27;20447;-85
2021/08/17 20:40:24;;;;;;;235.07;215.00;;;;;;;;;;5245219;27;20041;-85
2021/08/17 20:42:52;;;;;;;241.27;223.75;;;;;;;;;;5245680;27;20025;-86
2021/08/17 20:45:23;;;;;;;237.68;221.73;;;;;;;;;;5227756;27;20030;-85
2021/08/17 20:47:51;;;;;;;255.43;239.23;;;;;;;;;;5244550;27;20018;-84
2021/08/17 20:50:20;;;;;;;294.55;274.17;;;;;;;;;;5225447;27;20372;-85
2021/08/17 20:52:50;;;;;;;374.80;349.55;;;;;;;;;;5244645;27;20030;-85
2021/08/17 20:55:19;;;;;;;340.77;316.85;;;;;;;;;;5247040;27;20329;-87
2021/08/17 20:57:48;;;;;;;468.02;436.35;;;;;;;;;;5243945;27;20109;-85
2021/08/17 21:00:17;;;;;;;341.77;314.10;;;;;;;;;;5244307;27;20513;-85
2021/08/17 21:02:45;;;;;;;435.95;401.73;;;;;;;;;;5244510;27;20030;-85
2021/08/17 21:05:14;;;;;;;421.12;386.87;;;;;;;;;;5245658;27;20036;-86
2021/08/17 21:08:01;;;;;;;446.95;409.00;;;;;;;;;;5247075;27;20050;-87
2021/08/17 21:10:30;;;;;;;447.37;408.45;;;;;;;;;;5243528;27;20352;-86